createdAt,value
2022-10-19T00:01:23.425Z,102693.28
2022-10-19T00:03:54.355Z,102693.22
2022-10-19T00:06:27.259Z,102691.44
2022-10-19T00:08:58.554Z,102689.66
2022-10-19T00:11:26.584Z,102689.56
2022-10-19T00:13:55.120Z,102687.78
2022-10-19T00:16:23.530Z,102689.56
2022-10-19T00:18:51.164Z,102692.19
2022-10-19T00:21:19.869Z,102692.19
2022-10-19T00:23:47.433Z,102677.25
2022-10-19T00:26:14.782Z,102684.28
2022-10-19T00:28:43.382Z,102684.28
2022-10-19T00:31:14.808Z,102671.03
2022-10-19T00:33:43.405Z,102682.50
2022-10-19T00:36:35.804Z,102671.09
2022-10-19T00:39:05.794Z,102672.72
2022-10-19T00:41:35.524Z,102670.06
2022-10-19T00:44:28.487Z,102677.00
2022-10-19T00:47:04.919Z,102684.00
2022-10-19T00:49:39.750Z,102679.75
2022-10-19T00:52:12.874Z,102678.03
2022-10-19T00:54:43.922Z,102690.31
2022-10-19T00:57:12.259Z,102685.06
2022-10-19T00:59:42.516Z,102686.75
2022-10-19T01:02:09.539Z,102688.53
2022-10-19T01:04:42.154Z,102689.31
2022-10-19T01:07:09.211Z,102684.06
2022-10-19T01:09:36.500Z,102678.75
2022-10-19T01:12:32.175Z,102675.22
2022-10-19T01:15:10.827Z,102672.50
2022-10-19T01:17:47.479Z,102671.41
2022-10-19T01:21:03.214Z,102671.31
2022-10-19T01:24:18.110Z,102677.31
2022-10-19T01:27:16.982Z,102679.69
2022-10-19T01:29:56.819Z,102665.47
2022-10-19T01:33:01.313Z,102664.47
2022-10-19T01:35:39.081Z,102669.53
2022-10-19T01:38:38.066Z,102668.53
2022-10-19T01:41:22.975Z,102668.28
2022-10-19T01:44:10.071Z,102667.28
2022-10-19T01:46:40.504Z,102656.59
2022-10-19T01:49:16.233Z,102663.59
2022-10-19T01:51:54.575Z,102657.44
2022-10-19T01:54:24.141Z,102657.44
2022-10-19T01:56:54.082Z,102658.34
2022-10-19T01:59:22.458Z,102647.78
2022-10-19T02:01:51.165Z,102648.69
2022-10-19T02:04:22.423Z,102639.16
2022-10-19T02:06:55.294Z,102648.03
2022-10-19T02:09:22.674Z,102649.81
2022-10-19T02:11:57.357Z,102642.97
2022-10-19T02:14:35.134Z,102646.59
2022-10-19T02:17:19.903Z,102643.06
2022-10-19T02:19:47.255Z,102630.78
2022-10-19T02:22:14.407Z,102634.25
2022-10-19T02:24:41.578Z,102629.84
2022-10-19T02:27:09.156Z,102621.03
2022-10-19T02:29:38.122Z,102626.31
2022-10-19T02:32:05.700Z,102616.63
2022-10-19T02:34:33.813Z,102615.69
2022-10-19T02:37:00.931Z,102612.09
2022-10-19T02:39:28.286Z,102612.91
2022-10-19T02:42:04.208Z,102611.97
2022-10-19T02:44:48.024Z,102611.03
2022-10-19T02:47:49.512Z,102605.69
2022-10-19T02:50:18.312Z,102602.03
2022-10-19T02:52:45.525Z,102603.69
2022-10-19T02:55:12.565Z,102604.47
2022-10-19T02:57:39.643Z,102607.03
2022-10-19T03:00:09.127Z,102599.88
2022-10-19T03:02:36.140Z,102595.41
2022-10-19T03:05:04.001Z,102602.25
2022-10-19T03:07:31.388Z,102608.28
2022-10-19T03:09:58.637Z,102601.97
2022-10-19T03:12:25.645Z,102601.91
2022-10-19T03:14:52.641Z,102610.50
2022-10-19T03:17:20.149Z,102610.44
2022-10-19T03:19:47.212Z,102606.84
2022-10-19T03:22:15.129Z,102615.56
2022-10-19T03:24:42.126Z,102607.59
2022-10-19T03:27:09.127Z,102607.44
2022-10-19T03:29:36.158Z,102602.19
2022-10-19T03:32:03.506Z,102604.72
2022-10-19T03:34:30.494Z,102599.25
2022-10-19T03:36:59.244Z,102598.31
2022-10-19T03:39:26.416Z,102599.16
2022-10-19T03:41:53.374Z,102595.59
2022-10-19T03:44:20.559Z,102598.94
2022-10-19T03:46:47.726Z,102600.69
2022-10-19T03:49:15.275Z,102591.03
2022-10-19T03:51:42.621Z,102595.31
2022-10-19T03:54:15.284Z,102602.41
2022-10-19T03:56:43.212Z,102601.66
2022-10-19T03:59:14.596Z,102599.16
2022-10-19T04:01:45.572Z,102598.38
2022-10-19T04:04:17.477Z,102603.81
2022-10-19T04:06:47.878Z,102609.16
2022-10-19T04:09:19.079Z,102604.81
2022-10-19T04:11:46.609Z,102609.44
2022-10-19T04:14:22.894Z,102611.31
2022-10-19T04:17:03.350Z,102606.16
2022-10-19T04:19:31.056Z,102595.78
2022-10-19T04:21:58.264Z,102597.59
2022-10-19T04:24:25.303Z,102599.44
2022-10-19T04:26:54.679Z,102604.69
2022-10-19T04:29:27.854Z,102606.56
2022-10-19T04:31:57.277Z,102602.25
2022-10-19T04:34:24.359Z,102596.19
2022-10-19T04:36:52.584Z,102596.28
2022-10-19T04:39:19.570Z,102600.72
2022-10-19T04:41:46.490Z,102603.41
2022-10-19T04:44:13.513Z,102600.78
2022-10-19T04:46:40.607Z,102596.44
2022-10-19T04:49:07.781Z,102597.28
2022-10-19T04:51:34.967Z,102606.91
2022-10-19T04:54:03.982Z,102604.25
2022-10-19T04:56:32.512Z,102597.13
2022-10-19T04:59:00.896Z,102594.44
2022-10-19T05:01:30.568Z,102598.81
2022-10-19T05:04:00.708Z,102598.75
2022-10-19T05:06:29.362Z,102594.19
2022-10-19T05:08:56.802Z,102602.84
2022-10-19T05:11:24.232Z,102602.78
2022-10-19T05:13:51.420Z,102601.00
2022-10-19T05:16:22.150Z,102601.81
2022-10-19T05:18:58.873Z,102600.03
2022-10-19T05:21:28.960Z,102592.91
2022-10-19T05:23:57.233Z,102589.34
2022-10-19T05:26:27.377Z,102591.97
2022-10-19T05:28:57.898Z,102588.50
2022-10-19T05:31:31.009Z,102569.34
2022-10-19T05:33:58.504Z,102574.56
2022-10-19T05:36:35.278Z,102570.22
2022-10-19T05:39:15.514Z,102569.38
2022-10-19T05:41:47.501Z,102571.13
2022-10-19T05:44:20.929Z,102576.50
2022-10-19T05:46:50.026Z,102572.19
2022-10-19T05:49:19.760Z,102567.75
2022-10-19T05:51:47.108Z,102565.97
2022-10-19T05:54:14.801Z,102570.28
2022-10-19T05:56:42.669Z,102562.41
2022-10-19T05:59:15.926Z,102557.19
2022-10-19T06:01:42.875Z,102559.00
2022-10-19T06:04:10.922Z,102558.09
2022-10-19T06:06:37.986Z,102554.72
2022-10-19T06:09:04.968Z,102556.50
2022-10-19T06:11:35.387Z,102553.94
2022-10-19T06:14:09.037Z,102553.16
2022-10-19T06:16:36.509Z,102559.38
2022-10-19T06:19:06.139Z,102549.88
2022-10-19T06:21:34.615Z,102544.69
2022-10-19T06:24:05.134Z,102544.84
2022-10-19T06:26:34.297Z,102548.44
2022-10-19T06:29:04.375Z,102551.19
2022-10-19T06:31:34.756Z,102548.69
2022-10-19T06:34:02.110Z,102547.97
2022-10-19T06:36:31.711Z,102556.00
2022-10-19T06:39:01.644Z,102561.50
2022-10-19T06:41:31.115Z,102560.72
2022-10-19T06:43:58.533Z,102561.69
2022-10-19T06:46:27.447Z,102561.88
2022-10-19T06:48:58.384Z,102569.84
2022-10-19T06:51:28.765Z,102563.06
2022-10-19T06:53:57.497Z,102564.06
2022-10-19T06:56:25.978Z,102570.38
2022-10-19T06:58:53.916Z,102565.28
2022-10-19T07:01:21.747Z,102569.81
2022-10-19T07:03:52.372Z,102560.31
2022-10-19T07:06:19.727Z,102553.47
2022-10-19T07:08:46.689Z,102551.81
2022-10-19T07:11:18.791Z,102559.06
2022-10-19T07:13:45.957Z,102561.88
2022-10-19T07:16:21.042Z,102572.63
2022-10-19T07:18:51.507Z,102576.34
2022-10-19T07:21:21.065Z,102566.97
2022-10-19T07:23:49.079Z,102579.47
2022-10-19T07:26:27.253Z,102571.81
2022-10-19T07:28:57.328Z,102571.94
2022-10-19T07:31:26.357Z,102573.88
2022-10-19T07:33:59.779Z,102573.19
2022-10-19T07:36:29.368Z,102568.09
2022-10-19T07:38:57.108Z,102569.06
2022-10-19T07:41:26.297Z,102563.13
2022-10-19T07:43:54.376Z,102563.34
2022-10-19T07:46:29.138Z,102559.19
2022-10-19T07:48:56.362Z,102561.97
2022-10-19T07:51:23.696Z,102561.38
2022-10-19T07:53:50.726Z,102558.09
2022-10-19T07:56:23.804Z,102546.09
2022-10-19T07:58:52.761Z,102549.00
2022-10-19T08:01:24.019Z,102545.75
2022-10-19T08:04:48.686Z,102549.56
2022-10-19T08:06:41.346Z,102544.59
2022-10-19T08:09:08.506Z,102546.63
2022-10-19T08:11:36.572Z,102549.41
2022-10-19T08:14:04.432Z,102546.19
2022-10-19T08:16:40.460Z,102538.47
2022-10-19T08:19:14.141Z,102523.75
2022-10-19T08:21:44.594Z,102528.44
2022-10-19T08:24:14.853Z,102518.06
2022-10-19T08:26:42.640Z,102526.97
2022-10-19T08:29:19.622Z,102520.16
2022-10-19T08:31:48.680Z,102520.41
2022-10-19T08:34:16.163Z,102515.34
2022-10-19T08:36:43.508Z,102506.78
2022-10-19T08:39:12.697Z,102506.19
2022-10-19T08:41:59.832Z,102509.88
2022-10-19T08:45:13.976Z,102502.19
2022-10-19T08:47:53.104Z,102499.75
2022-10-19T08:50:32.535Z,102503.56
2022-10-19T08:53:07.719Z,102495.78
2022-10-19T08:55:45.034Z,102489.88
2022-10-19T08:59:01.737Z,102496.28
2022-10-19T09:02:25.107Z,102487.66
2022-10-19T09:05:05.724Z,102488.69
2022-10-19T09:07:45.054Z,102486.16
2022-10-19T09:10:15.758Z,102488.09
2022-10-19T09:12:58.841Z,102489.13
2022-10-19T09:15:55.922Z,102496.31
2022-10-19T09:18:30.410Z,102501.78
2022-10-19T09:21:30.964Z,102505.47
2022-10-19T09:24:16.233Z,102502.97
2022-10-19T09:26:56.025Z,102496.00
2022-10-19T09:29:48.164Z,102506.72
2022-10-19T09:32:22.294Z,102492.69
2022-10-19T09:35:03.196Z,102491.00
2022-10-19T09:37:31.927Z,102493.78
2022-10-19T09:39:59.053Z,102493.88
2022-10-19T09:42:34.719Z,102485.22
2022-10-19T09:45:35.781Z,102481.00
2022-10-19T09:48:13.458Z,102476.72
2022-10-19T09:50:44.067Z,102475.13
2022-10-19T09:53:20.881Z,102456.75
2022-10-19T09:56:08.989Z,102456.84
2022-10-19T09:58:36.380Z,102463.97
2022-10-19T10:01:03.921Z,102454.44
2022-10-19T10:03:43.349Z,102450.22
2022-10-19T10:06:15.257Z,102455.69
2022-10-19T10:08:52.774Z,102461.16
2022-10-19T10:11:28.738Z,102466.50
2022-10-19T10:13:57.674Z,102459.50
2022-10-19T10:16:30.418Z,102457.00
2022-10-19T10:19:11.683Z,102447.38
2022-10-19T10:21:57.788Z,102438.63
2022-10-19T10:24:31.082Z,102450.19
2022-10-19T10:27:01.872Z,102443.16
2022-10-19T10:29:30.836Z,102445.84
2022-10-19T10:32:13.118Z,102441.50
2022-10-19T10:35:00.975Z,102435.31
2022-10-19T10:37:41.088Z,102434.44
2022-10-19T10:40:31.534Z,102426.53
2022-10-19T10:43:12.935Z,102426.59
2022-10-19T10:45:51.386Z,102411.63
2022-10-19T10:48:42.987Z,102427.59
2022-10-19T10:51:31.864Z,102421.44
2022-10-19T10:54:17.535Z,102417.97
2022-10-19T10:57:06.235Z,102416.19
2022-10-19T11:00:01.270Z,102414.44
2022-10-19T11:02:41.260Z,102414.44
2022-10-19T11:05:15.788Z,102407.41
2022-10-19T11:07:48.722Z,102403.88
2022-10-19T11:10:35.696Z,102401.22
2022-10-19T11:13:33.259Z,102400.38
2022-10-19T11:16:17.392Z,102395.09
2022-10-19T11:19:12.172Z,102380.97
2022-10-19T11:22:15.372Z,102385.38
2022-10-19T11:24:54.261Z,102367.69
2022-10-19T11:27:54.429Z,102358.84
2022-10-19T11:30:25.132Z,102351.78
2022-10-19T11:33:28.511Z,102343.81
2022-10-19T11:36:04.173Z,102337.59
2022-10-19T11:38:35.105Z,102331.44
2022-10-19T11:41:49.143Z,102329.66
2022-10-19T11:44:40.815Z,102317.28
2022-10-19T11:47:50.707Z,102323.50
2022-10-19T11:50:54.499Z,102305.81
2022-10-19T11:53:46.168Z,102301.41
2022-10-19T11:56:58.232Z,102304.94
2022-10-19T12:00:14.279Z,102288.13
2022-10-19T12:03:24.050Z,102281.94
2022-10-19T12:06:04.242Z,102281.06
2022-10-19T12:09:04.813Z,102279.31
2022-10-19T12:12:11.263Z,102274.00
2022-10-19T12:14:43.857Z,102273.13
2022-10-19T12:17:20.540Z,102274.00
2022-10-19T12:19:53.296Z,102266.94
2022-10-19T12:22:26.765Z,102266.94
2022-10-19T12:24:57.248Z,102254.53
2022-10-19T12:27:38.624Z,102260.75
2022-10-19T12:30:22.658Z,102261.63
2022-10-19T12:33:20.453Z,102250.13
2022-10-19T12:36:02.100Z,102243.91
2022-10-19T12:39:09.067Z,102238.63
2022-10-19T12:41:56.615Z,102236.84
2022-10-19T12:44:53.787Z,102229.78
2022-10-19T12:47:25.252Z,102221.81
2022-10-19T12:49:55.682Z,102218.28
2022-10-19T12:52:52.870Z,102215.59
2022-10-19T12:55:27.297Z,102215.63
2022-10-19T12:58:17.524Z,102218.28
2022-10-19T13:01:02.837Z,102217.38
2022-10-19T13:03:41.511Z,102207.63
2022-10-19T13:06:33.559Z,102207.66
2022-10-19T13:09:05.773Z,102205.00
2022-10-19T13:14:27.234Z,102197.94
2022-10-19T13:17:01.830Z,102189.06
2022-10-19T13:19:29.586Z,102185.53
2022-10-19T13:22:22.683Z,102184.63
2022-10-19T13:25:21.501Z,102181.09
2022-10-19T13:27:56.295Z,102169.59
2022-10-19T13:30:38.545Z,102167.84
2022-10-19T13:33:29.811Z,102166.03
2022-10-19T13:35:59.970Z,102157.19
2022-10-19T13:39:05.874Z,102153.63
2022-10-19T13:41:38.925Z,102148.31
2022-10-19T13:44:21.115Z,102154.50
2022-10-19T13:47:34.637Z,102143.91
2022-10-19T13:50:24.070Z,102143.00
2022-10-19T13:53:22.730Z,102143.00
2022-10-19T13:56:34.437Z,102141.19
2022-10-19T13:59:43.300Z,102134.09
2022-10-19T14:02:37.792Z,102132.34
2022-10-19T14:05:30.452Z,102134.06
2022-10-19T14:08:21.880Z,102130.50
2022-10-19T14:11:05.702Z,102123.31
2022-10-19T14:13:33.231Z,102126.78
2022-10-19T14:16:02.912Z,102130.31
2022-10-19T14:18:36.456Z,102122.34
2022-10-19T14:21:09.802Z,102134.72
2022-10-19T14:23:40.240Z,102132.03
2022-10-19T14:26:21.888Z,102131.06
2022-10-19T14:28:55.152Z,102121.25
2022-10-19T14:31:33.118Z,102123.84
2022-10-19T14:34:04.092Z,102112.25
2022-10-19T14:36:39.001Z,102111.38
2022-10-19T14:39:07.583Z,102106.91
2022-10-19T14:41:37.448Z,102104.31
2022-10-19T14:44:40.347Z,102100.78
2022-10-19T14:47:27.743Z,102095.56
2022-10-19T14:49:54.860Z,102090.31
2022-10-19T14:52:39.006Z,102088.56
2022-10-19T14:55:17.970Z,102093.91
2022-10-19T14:57:49.228Z,102084.22
2022-10-19T15:00:23.383Z,102080.75
2022-10-19T15:03:05.400Z,102075.50
2022-10-19T15:05:36.575Z,102068.47
2022-10-19T15:08:24.370Z,102065.03
2022-10-19T15:10:52.213Z,102076.59
2022-10-19T15:13:42.591Z,102065.13
2022-10-19T15:16:39.005Z,102059.84
2022-10-19T15:19:26.361Z,102058.06
2022-10-19T15:22:20.868Z,102053.69
2022-10-19T15:25:32.775Z,102052.81
2022-10-19T15:28:41.565Z,102041.34
2022-10-19T15:31:29.856Z,102044.00
2022-10-19T15:34:01.597Z,102039.59
2022-10-19T15:36:31.402Z,102038.72
2022-10-19T15:39:06.260Z,102029.00
2022-10-19T15:41:45.285Z,102013.97
2022-10-19T15:44:47.822Z,102011.31
2022-10-19T15:47:20.238Z,102012.22
2022-10-19T15:49:57.904Z,102013.09
2022-10-19T15:52:33.168Z,102006.06
2022-10-19T15:55:01.813Z,102003.38
2022-10-19T15:57:37.567Z,102000.72
2022-10-19T16:00:12.309Z,101992.75
2022-10-19T16:02:39.415Z,101986.56
2022-10-19T16:05:07.854Z,101979.50
2022-10-19T16:07:39.234Z,101970.66
2022-10-19T16:10:07.718Z,101960.94
2022-10-19T16:12:34.774Z,101963.56
2022-10-19T16:15:01.905Z,101960.91
2022-10-19T16:17:28.960Z,101968.00
2022-10-19T16:19:55.945Z,101973.25
2022-10-19T16:22:23.078Z,101978.53
2022-10-19T16:24:50.068Z,101967.94
2022-10-19T16:27:17.148Z,101966.13
2022-10-19T16:29:44.925Z,101960.81
2022-10-19T16:32:12.377Z,101938.75
2022-10-19T16:34:39.533Z,101942.25
2022-10-19T16:37:07.328Z,101937.75
2022-10-19T16:39:35.129Z,101932.41
2022-10-19T16:42:02.141Z,101927.91
2022-10-19T16:44:29.489Z,101929.63
2022-10-19T16:46:57.739Z,101920.81
2022-10-19T16:49:25.382Z,101918.13
2022-10-19T16:51:56.299Z,101917.22
2022-10-19T16:54:26.732Z,101918.06
2022-10-19T16:56:55.720Z,101922.44
2022-10-19T16:59:23.303Z,101921.53
2022-10-19T17:01:50.904Z,101910.03
2022-10-19T17:04:18.195Z,101909.16
2022-10-19T17:06:47.597Z,101912.63
2022-10-19T17:09:40.386Z,101900.25
2022-10-19T17:12:01.769Z,101895.81
2022-10-19T17:14:28.755Z,101890.50
2022-10-19T17:16:55.753Z,101902.81
2022-10-19T17:19:23.827Z,101899.28
2022-10-19T17:21:51.120Z,101899.22
2022-10-19T17:24:22.058Z,101902.75
2022-10-19T17:26:51.768Z,101899.19
2022-10-19T17:29:20.834Z,101888.59
2022-10-19T17:31:48.742Z,101887.72
2022-10-19T17:34:17.814Z,101885.94
2022-10-19T17:36:46.148Z,101883.25
2022-10-19T17:39:24.411Z,101885.88
2022-10-19T17:41:54.996Z,101885.88
2022-10-19T17:44:25.385Z,101883.25
2022-10-19T17:46:52.391Z,101884.13
2022-10-19T17:49:19.554Z,101895.56
2022-10-19T17:51:46.643Z,101897.31
2022-10-19T17:54:14.962Z,101903.50
2022-10-19T17:56:45.292Z,101900.84
2022-10-19T17:59:13.419Z,101901.72
2022-10-19T18:01:40.977Z,101901.69
2022-10-19T18:04:08.070Z,101904.31
2022-10-19T18:06:38.425Z,101902.50
2022-10-19T18:09:09.247Z,101902.50
2022-10-19T18:11:41.905Z,101893.69
2022-10-19T18:14:12.158Z,101888.38
2022-10-19T18:16:45.303Z,101887.47
2022-10-19T18:19:14.854Z,101883.09
2022-10-19T18:21:46.653Z,101881.31
2022-10-19T18:24:19.671Z,101876.91
2022-10-19T18:26:51.183Z,101875.97
2022-10-19T18:29:22.348Z,101882.13
2022-10-19T18:31:52.319Z,101888.25
2022-10-19T18:34:29.154Z,101902.34
2022-10-19T18:36:56.293Z,101902.28
2022-10-19T18:39:23.431Z,101896.97
2022-10-19T18:41:54.753Z,101889.88
2022-10-19T18:44:26.394Z,101877.56
2022-10-19T18:46:55.123Z,101861.69
2022-10-19T18:49:22.435Z,101859.00
2022-10-19T18:51:54.108Z,101848.44
2022-10-19T18:54:23.376Z,101849.31
2022-10-19T18:56:50.420Z,101847.50
2022-10-19T18:59:18.631Z,101845.75
2022-10-19T19:01:45.809Z,101851.91
2022-10-19T19:04:13.120Z,101847.47
2022-10-19T19:06:40.343Z,101836.03
2022-10-19T19:09:11.038Z,101838.63
2022-10-19T19:11:41.184Z,101838.59
2022-10-19T19:14:21.103Z,101835.94
2022-10-19T19:16:48.209Z,101823.59
2022-10-19T19:19:17.813Z,101818.31
2022-10-19T19:21:46.007Z,101813.00
2022-10-19T19:24:18.216Z,101811.25
2022-10-19T19:26:50.353Z,101796.22
2022-10-19T19:29:19.768Z,101798.84
2022-10-19T19:31:48.114Z,101789.34
2022-10-19T19:34:15.571Z,101787.53
2022-10-19T19:36:48.170Z,101783.13
2022-10-19T19:39:19.447Z,101771.63
2022-10-19T19:41:49.442Z,101773.38
2022-10-19T19:44:16.966Z,101773.31
2022-10-19T19:46:44.065Z,101766.25
2022-10-19T19:49:11.452Z,101762.72
2022-10-19T19:51:38.465Z,101762.66
2022-10-19T19:54:05.955Z,101750.19
2022-10-19T19:56:33.273Z,101754.50
2022-10-19T19:59:03.594Z,101748.34
2022-10-19T20:01:31.551Z,101746.56
2022-10-19T20:04:00.122Z,101733.34
2022-10-19T20:06:27.188Z,101732.44
2022-10-19T20:08:56.339Z,101736.81
2022-10-19T20:11:26.385Z,101728.88
2022-10-19T20:13:53.652Z,101728.00
2022-10-19T20:16:28.197Z,101728.00
2022-10-19T20:19:08.309Z,101722.66
2022-10-19T20:21:36.013Z,101725.28
2022-10-19T20:24:04.015Z,101721.78
2022-10-19T20:26:31.783Z,101723.44
2022-10-19T20:28:59.161Z,101719.91
2022-10-19T20:31:26.278Z,101722.53
2022-10-19T20:33:53.565Z,101716.34
2022-10-19T20:36:25.986Z,101717.25
2022-10-19T20:38:55.094Z,101716.31
2022-10-19T20:41:24.776Z,101712.78
2022-10-19T20:43:53.755Z,101706.63
2022-10-19T20:46:25.106Z,101704.00
2022-10-19T20:48:52.796Z,101709.25
2022-10-19T20:51:26.071Z,101700.47
2022-10-19T20:53:58.612Z,101689.91
2022-10-19T20:56:29.461Z,101699.56
2022-10-19T21:01:31.864Z,101703.00
2022-10-19T21:04:03.352Z,101703.00
2022-10-19T21:06:38.105Z,101697.75
2022-10-19T21:09:06.056Z,101691.56
2022-10-19T21:11:37.498Z,101691.56
2022-10-19T21:14:15.979Z,101698.59
2022-10-19T21:16:43.309Z,101695.91
2022-10-19T21:19:17.545Z,101707.31
2022-10-19T21:21:51.798Z,101692.38
2022-10-19T21:24:29.652Z,101685.34
2022-10-19T21:26:56.701Z,101686.22
2022-10-19T21:29:23.688Z,101684.47
2022-10-19T21:31:53.204Z,101671.28
2022-10-19T21:34:24.431Z,101670.41
2022-10-19T21:36:52.031Z,101668.66
2022-10-19T21:39:19.719Z,101672.16
2022-10-19T21:41:47.859Z,101671.28
2022-10-19T21:44:16.687Z,101668.66
2022-10-19T21:46:44.866Z,101664.28
2022-10-19T21:49:12.994Z,101662.50
2022-10-19T21:51:53.752Z,101659.00
2022-10-19T21:54:27.676Z,101651.97
2022-10-19T21:56:56.558Z,101653.75
2022-10-19T21:59:24.548Z,101648.50
2022-10-19T22:01:51.671Z,101644.09
2022-10-19T22:04:19.075Z,101642.31
2022-10-19T22:06:48.742Z,101639.69
2022-10-19T22:09:20.447Z,101642.31
2022-10-19T22:11:48.008Z,101643.19
2022-10-19T22:14:16.470Z,101642.25
2022-10-19T22:16:44.251Z,101623.81
2022-10-19T22:19:11.859Z,101615.91
2022-10-19T22:21:39.813Z,101614.16
2022-10-19T22:24:12.555Z,101610.63
2022-10-19T22:26:43.734Z,101613.25
2022-10-19T22:29:10.825Z,101614.09
2022-10-19T22:31:38.434Z,101609.72
2022-10-19T22:34:09.630Z,101606.16
2022-10-19T22:36:36.993Z,101592.97
2022-10-19T22:39:04.905Z,101603.53
2022-10-19T22:42:47.024Z,101597.38
2022-10-19T22:45:13.978Z,101598.22
2022-10-19T22:47:40.937Z,101586.78
2022-10-19T22:50:11.750Z,101578.00
2022-10-19T22:52:39.116Z,101576.22
2022-10-19T22:55:06.679Z,101579.72
2022-10-19T22:57:33.690Z,101573.59
2022-10-19T23:00:00.685Z,101574.44
2022-10-19T23:02:29.373Z,101574.44
2022-10-19T23:04:56.484Z,101556.84
2022-10-19T23:07:23.538Z,101549.81
2022-10-19T23:09:50.589Z,101542.78
2022-10-19T23:12:17.609Z,101542.78
2022-10-19T23:14:44.617Z,101542.75
2022-10-19T23:17:11.616Z,101547.09
2022-10-19T23:19:38.619Z,101542.72
2022-10-19T23:22:05.624Z,101549.72
2022-10-19T23:24:32.762Z,101547.06
2022-10-19T23:26:59.850Z,101546.19
2022-10-19T23:29:26.937Z,101550.56
2022-10-19T23:31:53.973Z,101535.59
2022-10-19T23:34:20.945Z,101541.72
2022-10-19T23:36:48.076Z,101546.09
2022-10-19T23:39:15.143Z,101545.22
2022-10-19T23:41:42.162Z,101537.31
2022-10-19T23:44:10.326Z,101530.28
2022-10-19T23:46:37.231Z,101529.41
2022-10-19T23:49:04.175Z,101527.59
2022-10-19T23:51:31.141Z,101517.94
2022-10-19T23:53:58.180Z,101514.44
2022-10-19T23:56:28.664Z,101505.66
2022-10-19T23:58:56.757Z,101503.88
